sensor_id;sensor_type;location;lat;lon;timestamp;P1;durP1;ratioP1;P2;durP2;ratioP2
16037;SDS011;8123;50.906;6.172;2023-04-01T00:00:30;4.90;;;1.23;;
16037;SDS011;8123;50.906;6.172;2023-04-01T00:02:56;5.80;;;2.00;;
16037;SDS011;8123;50.906;6.172;2023-04-01T00:05:22;10.60;;;1.60;;
16037;SDS011;8123;50.906;6.172;2023-04-01T00:07:49;4.63;;;1.17;;
16037;SDS011;8123;50.906;6.172;2023-04-01T00:10:15;4.53;;;1.43;;
16037;SDS011;8123;50.906;6.172;2023-04-01T00:12:41;6.03;;;1.33;;
16037;SDS011;8123;50.906;6.172;2023-04-01T00:15:08;5.20;;;1.60;;
16037;SDS011;8123;50.906;6.172;2023-04-01T00:17:35;3.80;;;1.30;;
16037;SDS011;8123;50.906;6.172;2023-04-01T00:20:02;2.67;;;1.17;;
16037;SDS011;8123;50.906;6.172;2023-04-01T00:22:28;2.93;;;1.23;;
16037;SDS011;8123;50.906;6.172;2023-04-01T00:24:53;6.70;;;1.87;;
16037;SDS011;8123;50.906;6.172;2023-04-01T00:27:19;4.00;;;1.83;;
16037;SDS011;8123;50.906;6.172;2023-04-01T00:29:45;3.43;;;1.50;;
16037;SDS011;8123;50.906;6.172;2023-04-01T00:32:12;0.90;;;0.90;;
16037;SDS011;8123;50.906;6.172;2023-04-01T00:34:39;1.40;;;1.10;;
16037;SDS011;8123;50.906;6.172;2023-04-01T00:37:05;4.83;;;1.27;;
16037;SDS011;8123;50.906;6.172;2023-04-01T00:39:32;3.13;;;1.33;;
16037;SDS011;8123;50.906;6.172;2023-04-01T00:42:00;2.97;;;1.10;;
16037;SDS011;8123;50.906;6.172;2023-04-01T00:44:28;1.60;;;1.07;;
16037;SDS011;8123;50.906;6.172;2023-04-01T00:46:56;3.20;;;1.20;;
16037;SDS011;8123;50.906;6.172;2023-04-01T00:49:22;6.03;;;1.67;;
16037;SDS011;8123;50.906;6.172;2023-04-01T00:51:52;4.63;;;1.33;;
16037;SDS011;8123;50.906;6.172;2023-04-01T00:54:21;3.03;;;1.10;;
16037;SDS011;8123;50.906;6.172;2023-04-01T00:56:50;2.97;;;1.40;;
16037;SDS011;8123;50.906;6.172;2023-04-01T00:59:23;2.30;;;1.10;;
16037;SDS011;8123;50.906;6.172;2023-04-01T01:01:51;1.90;;;1.20;;
16037;SDS011;8123;50.906;6.172;2023-04-01T01:04:24;1.27;;;1.17;;
16037;SDS011;8123;50.906;6.172;2023-04-01T01:06:56;1.90;;;1.30;;
16037;SDS011;8123;50.906;6.172;2023-04-01T01:09:35;4.80;;;1.30;;
16037;SDS011;8123;50.906;6.172;2023-04-01T01:12:27;1.00;;;1.00;;
16037;SDS011;8123;50.906;6.172;2023-04-01T01:26:09;0.93;;;0.93;;
16037;SDS011;8123;50.906;6.172;2023-04-01T01:37:01;2.73;;;1.00;;
16037;SDS011;8123;50.906;6.172;2023-04-01T01:39:35;2.67;;;1.30;;
16037;SDS011;8123;50.906;6.172;2023-04-01T01:42:05;2.40;;;1.13;;
16037;SDS011;8123;50.906;6.172;2023-04-01T01:44:35;2.10;;;0.90;;
16037;SDS011;8123;50.906;6.172;2023-04-01T01:47:03;2.93;;;1.60;;
16037;SDS011;8123;50.906;6.172;2023-04-01T01:49:29;0.73;;;0.73;;
16037;SDS011;8123;50.906;6.172;2023-04-01T01:51:58;1.07;;;0.93;;
16037;SDS011;8123;50.906;6.172;2023-04-01T01:54:23;3.87;;;1.00;;
16037;SDS011;8123;50.906;6.172;2023-04-01T01:56:50;4.50;;;0.80;;
16037;SDS011;8123;50.906;6.172;2023-04-01T01:59:20;1.10;;;1.07;;
16037;SDS011;8123;50.906;6.172;2023-04-01T02:01:50;2.80;;;1.00;;
16037;SDS011;8123;50.906;6.172;2023-04-01T02:04:18;0.90;;;0.90;;
16037;SDS011;8123;50.906;6.172;2023-04-01T02:06:53;2.30;;;0.97;;
16037;SDS011;8123;50.906;6.172;2023-04-01T02:09:25;2.67;;;0.70;;
16037;SDS011;8123;50.906;6.172;2023-04-01T02:11:52;1.33;;;0.80;;
16037;SDS011;8123;50.906;6.172;2023-04-01T02:14:23;1.57;;;0.80;;
16037;SDS011;8123;50.906;6.172;2023-04-01T02:17:02;0.90;;;0.90;;
16037;SDS011;8123;50.906;6.172;2023-04-01T02:19:39;0.77;;;0.77;;
16037;SDS011;8123;50.906;6.172;2023-04-01T02:22:13;0.70;;;0.70;;
16037;SDS011;8123;50.906;6.172;2023-04-01T02:24:42;0.70;;;0.70;;
16037;SDS011;8123;50.906;6.172;2023-04-01T02:27:10;1.40;;;1.00;;
16037;SDS011;8123;50.906;6.172;2023-04-01T02:29:36;2.30;;;0.80;;
16037;SDS011;8123;50.906;6.172;2023-04-01T02:32:03;1.00;;;1.00;;
16037;SDS011;8123;50.906;6.172;2023-04-01T02:34:30;1.33;;;1.00;;
16037;SDS011;8123;50.906;6.172;2023-04-01T02:36:57;0.80;;;0.80;;
16037;SDS011;8123;50.906;6.172;2023-04-01T02:39:23;2.70;;;0.93;;
16037;SDS011;8123;50.906;6.172;2023-04-01T02:41:50;5.57;;;1.10;;
16037;SDS011;8123;50.906;6.172;2023-04-01T02:44:16;1.00;;;1.00;;
16037;SDS011;8123;50.906;6.172;2023-04-01T02:46:42;1.27;;;0.83;;
16037;SDS011;8123;50.906;6.172;2023-04-01T02:49:07;1.77;;;1.17;;
16037;SDS011;8123;50.906;6.172;2023-04-01T02:51:33;1.03;;;1.03;;
16037;SDS011;8123;50.906;6.172;2023-04-01T02:53:59;0.80;;;0.80;;
16037;SDS011;8123;50.906;6.172;2023-04-01T02:56:25;1.57;;;1.00;;
16037;SDS011;8123;50.906;6.172;2023-04-01T02:58:51;0.90;;;0.90;;
16037;SDS011;8123;50.906;6.172;2023-04-01T03:01:18;3.60;;;1.13;;
16037;SDS011;8123;50.906;6.172;2023-04-01T03:03:44;4.47;;;1.47;;
16037;SDS011;8123;50.906;6.172;2023-04-01T03:06:11;5.80;;;1.77;;
16037;SDS011;8123;50.906;6.172;2023-04-01T03:08:38;1.87;;;1.00;;
16037;SDS011;8123;50.906;6.172;2023-04-01T03:11:04;2.10;;;0.90;;
16037;SDS011;8123;50.906;6.172;2023-04-01T03:13:31;0.90;;;0.90;;
16037;SDS011;8123;50.906;6.172;2023-04-01T03:15:57;2.30;;;1.00;;
16037;SDS011;8123;50.906;6.172;2023-04-01T03:18:23;0.90;;;0.73;;
16037;SDS011;8123;50.906;6.172;2023-04-01T03:20:48;1.20;;;1.10;;
16037;SDS011;8123;50.906;6.172;2023-04-01T03:23:14;1.67;;;1.00;;
16037;SDS011;8123;50.906;6.172;2023-04-01T03:25:42;1.80;;;0.90;;
16037;SDS011;8123;50.906;6.172;2023-04-01T03:28:08;1.07;;;0.90;;
16037;SDS011;8123;50.906;6.172;2023-04-01T03:30:33;2.10;;;1.07;;
16037;SDS011;8123;50.906;6.172;2023-04-01T03:32:59;1.43;;;0.97;;
16037;SDS011;8123;50.906;6.172;2023-04-01T03:35:25;1.93;;;1.10;;
16037;SDS011;8123;50.906;6.172;2023-04-01T03:37:52;0.90;;;0.90;;
16037;SDS011;8123;50.906;6.172;2023-04-01T03:40:18;3.23;;;0.80;;
16037;SDS011;8123;50.906;6.172;2023-04-01T03:42:43;1.10;;;1.10;;
16037;SDS011;8123;50.906;6.172;2023-04-01T03:45:09;2.00;;;1.30;;
16037;SDS011;8123;50.906;6.172;2023-04-01T03:47:37;2.33;;;1.50;;
16037;SDS011;8123;50.906;6.172;2023-04-01T03:50:03;1.60;;;1.07;;
16037;SDS011;8123;50.906;6.172;2023-04-01T03:52:30;1.27;;;1.27;;
16037;SDS011;8123;50.906;6.172;2023-04-01T03:54:55;6.13;;;1.30;;
16037;SDS011;8123;50.906;6.172;2023-04-01T03:57:21;1.23;;;1.23;;
16037;SDS011;8123;50.906;6.172;2023-04-01T03:59:47;1.43;;;1.07;;
16037;SDS011;8123;50.906;6.172;2023-04-01T04:02:12;1.43;;;1.43;;
16037;SDS011;8123;50.906;6.172;2023-04-01T04:04:38;1.40;;;1.40;;
16037;SDS011;8123;50.906;6.172;2023-04-01T04:07:04;1.73;;;1.50;;
16037;SDS011;8123;50.906;6.172;2023-04-01T04:09:30;1.53;;;1.53;;
16037;SDS011;8123;50.906;6.172;2023-04-01T04:11:56;1.53;;;1.53;;
16037;SDS011;8123;50.906;6.172;2023-04-01T04:14:22;2.27;;;1.40;;
16037;SDS011;8123;50.906;6.172;2023-04-01T04:16:48;1.73;;;1.23;;
16037;SDS011;8123;50.906;6.172;2023-04-01T04:19:14;1.63;;;1.03;;
16037;SDS011;8123;50.906;6.172;2023-04-01T04:21:40;1.50;;;1.50;;
16037;SDS011;8123;50.906;6.172;2023-04-01T04:24:06;1.70;;;1.60;;
16037;SDS011;8123;50.906;6.172;2023-04-01T04:26:32;1.33;;;1.33;;
16037;SDS011;8123;50.906;6.172;2023-04-01T04:28:58;4.40;;;1.60;;
16037;SDS011;8123;50.906;6.172;2023-04-01T04:31:24;3.53;;;1.70;;
16037;SDS011;8123;50.906;6.172;2023-04-01T04:33:51;1.80;;;1.70;;
16037;SDS011;8123;50.906;6.172;2023-04-01T04:36:17;3.60;;;2.23;;
16037;SDS011;8123;50.906;6.172;2023-04-01T04:38:43;2.10;;;2.00;;
16037;SDS011;8123;50.906;6.172;2023-04-01T04:41:12;1.60;;;1.60;;
16037;SDS011;8123;50.906;6.172;2023-04-01T04:43:39;1.90;;;1.80;;
16037;SDS011;8123;50.906;6.172;2023-04-01T04:46:06;2.07;;;1.97;;
16037;SDS011;8123;50.906;6.172;2023-04-01T04:48:33;2.33;;;2.23;;
16037;SDS011;8123;50.906;6.172;2023-04-01T04:50:59;2.90;;;1.87;;
16037;SDS011;8123;50.906;6.172;2023-04-01T04:53:25;1.47;;;1.37;;
16037;SDS011;8123;50.906;6.172;2023-04-01T04:55:51;3.30;;;1.47;;
16037;SDS011;8123;50.906;6.172;2023-04-01T04:58:17;2.17;;;2.00;;
16037;SDS011;8123;50.906;6.172;2023-04-01T05:00:43;2.03;;;1.47;;
16037;SDS011;8123;50.906;6.172;2023-04-01T05:03:10;1.90;;;1.77;;
16037;SDS011;8123;50.906;6.172;2023-04-01T05:05:37;3.10;;;1.50;;
16037;SDS011;8123;50.906;6.172;2023-04-01T05:08:03;1.90;;;1.80;;
16037;SDS011;8123;50.906;6.172;2023-04-01T05:10:29;1.10;;;1.10;;
16037;SDS011;8123;50.906;6.172;2023-04-01T05:12:56;1.37;;;1.20;;
16037;SDS011;8123;50.906;6.172;2023-04-01T05:15:22;1.60;;;1.60;;
16037;SDS011;8123;50.906;6.172;2023-04-01T05:17:48;1.30;;;1.30;;
16037;SDS011;8123;50.906;6.172;2023-04-01T05:20:14;1.60;;;1.50;;
16037;SDS011;8123;50.906;6.172;2023-04-01T05:22:40;1.30;;;1.17;;
16037;SDS011;8123;50.906;6.172;2023-04-01T05:25:06;1.87;;;1.87;;
16037;SDS011;8123;50.906;6.172;2023-04-01T05:27:32;2.00;;;1.50;;
16037;SDS011;8123;50.906;6.172;2023-04-01T05:29:58;2.03;;;1.93;;
16037;SDS011;8123;50.906;6.172;2023-04-01T05:32:23;1.77;;;1.67;;
16037;SDS011;8123;50.906;6.172;2023-04-01T05:34:52;3.03;;;1.70;;
16037;SDS011;8123;50.906;6.172;2023-04-01T05:37:18;1.47;;;1.47;;
16037;SDS011;8123;50.906;6.172;2023-04-01T05:39:44;1.77;;;1.60;;
16037;SDS011;8123;50.906;6.172;2023-04-01T05:42:10;1.40;;;1.40;;
16037;SDS011;8123;50.906;6.172;2023-04-01T05:44:36;1.53;;;1.43;;
16037;SDS011;8123;50.906;6.172;2023-04-01T05:47:03;2.70;;;2.07;;
16037;SDS011;8123;50.906;6.172;2023-04-01T05:49:29;2.73;;;2.53;;
16037;SDS011;8123;50.906;6.172;2023-04-01T05:51:55;2.60;;;2.00;;
16037;SDS011;8123;50.906;6.172;2023-04-01T05:54:21;3.00;;;2.80;;
16037;SDS011;8123;50.906;6.172;2023-04-01T05:56:47;2.70;;;2.50;;
16037;SDS011;8123;50.906;6.172;2023-04-01T05:59:12;3.30;;;3.07;;
16037;SDS011;8123;50.906;6.172;2023-04-01T06:01:38;2.67;;;2.57;;
16037;SDS011;8123;50.906;6.172;2023-04-01T06:04:04;10.37;;;4.10;;
16037;SDS011;8123;50.906;6.172;2023-04-01T06:06:30;3.30;;;3.03;;
16037;SDS011;8123;50.906;6.172;2023-04-01T06:08:58;3.20;;;3.00;;
16037;SDS011;8123;50.906;6.172;2023-04-01T06:25:11;3.33;;;3.00;;
16037;SDS011;8123;50.906;6.172;2023-04-01T06:30:33;3.40;;;2.50;;
16037;SDS011;8123;50.906;6.172;2023-04-01T06:38:30;3.40;;;3.10;;
16037;SDS011;8123;50.906;6.172;2023-04-01T06:44:14;6.10;;;3.20;;
16037;SDS011;8123;50.906;6.172;2023-04-01T06:46:58;6.83;;;3.93;;
16037;SDS011;8123;50.906;6.172;2023-04-01T06:58:27;7.00;;;3.80;;
16037;SDS011;8123;50.906;6.172;2023-04-01T07:00:59;3.23;;;2.60;;
16037;SDS011;8123;50.906;6.172;2023-04-01T07:06:20;2.50;;;2.40;;
16037;SDS011;8123;50.906;6.172;2023-04-01T07:08:56;5.67;;;2.40;;
16037;SDS011;8123;50.906;6.172;2023-04-01T07:11:29;2.00;;;1.90;;
16037;SDS011;8123;50.906;6.172;2023-04-01T07:16:47;1.67;;;1.67;;
16037;SDS011;8123;50.906;6.172;2023-04-01T07:19:20;1.83;;;1.73;;
16037;SDS011;8123;50.906;6.172;2023-04-01T07:21:54;1.77;;;1.67;;
16037;SDS011;8123;50.906;6.172;2023-04-01T07:24:26;3.50;;;1.97;;
16037;SDS011;8123;50.906;6.172;2023-04-01T07:26:56;1.77;;;1.67;;
16037;SDS011;8123;50.906;6.172;2023-04-01T07:29:23;2.10;;;2.00;;
16037;SDS011;8123;50.906;6.172;2023-04-01T07:36:59;2.10;;;1.90;;
16037;SDS011;8123;50.906;6.172;2023-04-01T07:39:37;1.60;;;1.60;;
16037;SDS011;8123;50.906;6.172;2023-04-01T07:42:13;3.60;;;1.30;;
16037;SDS011;8123;50.906;6.172;2023-04-01T07:47:57;3.27;;;1.97;;
16037;SDS011;8123;50.906;6.172;2023-04-01T07:53:38;1.80;;;1.70;;
16037;SDS011;8123;50.906;6.172;2023-04-01T07:56:16;2.43;;;1.80;;
16037;SDS011;8123;50.906;6.172;2023-04-01T07:59:02;1.43;;;1.43;;
16037;SDS011;8123;50.906;6.172;2023-04-01T08:12:24;2.40;;;2.30;;
16037;SDS011;8123;50.906;6.172;2023-04-01T08:21:14;1.87;;;1.77;;
16037;SDS011;8123;50.906;6.172;2023-04-01T08:23:17;1.80;;;1.70;;
16037;SDS011;8123;50.906;6.172;2023-04-01T08:31:10;2.17;;;1.87;;
16037;SDS011;8123;50.906;6.172;2023-04-01T08:33:41;1.70;;;1.70;;
16037;SDS011;8123;50.906;6.172;2023-04-01T08:36:12;2.37;;;2.27;;
16037;SDS011;8123;50.906;6.172;2023-04-01T08:38:55;2.30;;;2.20;;
16037;SDS011;8123;50.906;6.172;2023-04-01T08:41:34;2.30;;;2.20;;
16037;SDS011;8123;50.906;6.172;2023-04-01T08:46:54;2.03;;;1.93;;
16037;SDS011;8123;50.906;6.172;2023-04-01T08:55:02;4.20;;;2.17;;
16037;SDS011;8123;50.906;6.172;2023-04-01T09:00:15;1.77;;;1.77;;
16037;SDS011;8123;50.906;6.172;2023-04-01T09:02:55;2.07;;;2.07;;
16037;SDS011;8123;50.906;6.172;2023-04-01T09:05:36;2.00;;;1.90;;
16037;SDS011;8123;50.906;6.172;2023-04-01T09:08:30;2.00;;;1.90;;
16037;SDS011;8123;50.906;6.172;2023-04-01T09:17:09;1.60;;;1.60;;
16037;SDS011;8123;50.906;6.172;2023-04-01T09:41:09;2.33;;;2.23;;
16037;SDS011;8123;50.906;6.172;2023-04-01T09:52:48;2.83;;;2.73;;
16037;SDS011;8123;50.906;6.172;2023-04-01T10:11:45;3.30;;;2.70;;
16037;SDS011;8123;50.906;6.172;2023-04-01T10:34:12;2.73;;;2.53;;
16037;SDS011;8123;50.906;6.172;2023-04-01T10:37:15;2.80;;;2.60;;
16037;SDS011;8123;50.906;6.172;2023-04-01T10:43:23;2.80;;;2.60;;
16037;SDS011;8123;50.906;6.172;2023-04-01T10:57:09;2.70;;;2.60;;
16037;SDS011;8123;50.906;6.172;2023-04-01T11:14:19;3.67;;;3.40;;
16037;SDS011;8123;50.906;6.172;2023-04-01T11:31:17;3.70;;;3.50;;
16037;SDS011;8123;50.906;6.172;2023-04-01T11:36:39;3.27;;;3.07;;
16037;SDS011;8123;50.906;6.172;2023-04-01T11:42:17;2.70;;;2.60;;
16037;SDS011;8123;50.906;6.172;2023-04-01T11:44:48;2.97;;;2.87;;
16037;SDS011;8123;50.906;6.172;2023-04-01T11:50:28;4.10;;;3.80;;
16037;SDS011;8123;50.906;6.172;2023-04-01T11:56:14;4.77;;;4.30;;
16037;SDS011;8123;50.906;6.172;2023-04-01T12:04:51;3.67;;;3.50;;
16037;SDS011;8123;50.906;6.172;2023-04-01T12:10:16;4.00;;;3.67;;
16037;SDS011;8123;50.906;6.172;2023-04-01T12:13:02;4.87;;;3.83;;
16037;SDS011;8123;50.906;6.172;2023-04-01T12:18:26;4.30;;;4.10;;
16037;SDS011;8123;50.906;6.172;2023-04-01T12:21:22;3.73;;;3.53;;
16037;SDS011;8123;50.906;6.172;2023-04-01T12:24:15;5.07;;;4.67;;
16037;SDS011;8123;50.906;6.172;2023-04-01T12:27:14;4.03;;;3.73;;
16037;SDS011;8123;50.906;6.172;2023-04-01T12:38:11;5.27;;;4.87;;
16037;SDS011;8123;50.906;6.172;2023-04-01T12:40:46;4.30;;;4.00;;
16037;SDS011;8123;50.906;6.172;2023-04-01T12:46:40;5.30;;;4.90;;
16037;SDS011;8123;50.906;6.172;2023-04-01T12:52:07;5.27;;;4.87;;
16037;SDS011;8123;50.906;6.172;2023-04-01T13:00:30;5.60;;;5.10;;
16037;SDS011;8123;50.906;6.172;2023-04-01T13:08:34;7.40;;;6.50;;
16037;SDS011;8123;50.906;6.172;2023-04-01T13:11:25;6.17;;;5.57;;
16037;SDS011;8123;50.906;6.172;2023-04-01T13:14:17;7.07;;;6.10;;
16037;SDS011;8123;50.906;6.172;2023-04-01T13:16:58;5.97;;;5.40;;
16037;SDS011;8123;50.906;6.172;2023-04-01T13:19:53;6.57;;;5.97;;
16037;SDS011;8123;50.906;6.172;2023-04-01T13:22:48;6.13;;;5.30;;
16037;SDS011;8123;50.906;6.172;2023-04-01T13:36:28;3.90;;;3.43;;
16037;SDS011;8123;50.906;6.172;2023-04-01T13:44:43;13.70;;;4.87;;
16037;SDS011;8123;50.906;6.172;2023-04-01T13:56:16;4.67;;;4.27;;
16037;SDS011;8123;50.906;6.172;2023-04-01T14:06:54;3.87;;;3.67;;
16037;SDS011;8123;50.906;6.172;2023-04-01T14:15:07;4.40;;;4.10;;
16037;SDS011;8123;50.906;6.172;2023-04-01T14:21:04;6.77;;;5.47;;
16037;SDS011;8123;50.906;6.172;2023-04-01T14:45:19;5.87;;;5.27;;
16037;SDS011;8123;50.906;6.172;2023-04-01T14:50:30;9.83;;;5.30;;
16037;SDS011;8123;50.906;6.172;2023-04-01T14:53:16;5.33;;;4.83;;
16037;SDS011;8123;50.906;6.172;2023-04-01T14:55:59;11.00;;;4.67;;
16037;SDS011;8123;50.906;6.172;2023-04-01T14:58:59;6.60;;;6.00;;
16037;SDS011;8123;50.906;6.172;2023-04-01T15:15:16;4.83;;;4.43;;
16037;SDS011;8123;50.906;6.172;2023-04-01T15:18:13;6.07;;;4.90;;
16037;SDS011;8123;50.906;6.172;2023-04-01T15:31:50;5.90;;;4.83;;
16037;SDS011;8123;50.906;6.172;2023-04-01T15:34:32;4.47;;;4.07;;
16037;SDS011;8123;50.906;6.172;2023-04-01T15:38:02;4.30;;;3.90;;
16037;SDS011;8123;50.906;6.172;2023-04-01T15:40:01;4.00;;;3.70;;
16037;SDS011;8123;50.906;6.172;2023-04-01T15:58:01;3.77;;;3.47;;
16037;SDS011;8123;50.906;6.172;2023-04-01T16:00:47;3.60;;;3.30;;
16037;SDS011;8123;50.906;6.172;2023-04-01T16:03:26;3.83;;;3.53;;
16037;SDS011;8123;50.906;6.172;2023-04-01T16:12:15;4.30;;;4.00;;
16037;SDS011;8123;50.906;6.172;2023-04-01T16:17:58;13.73;;;4.13;;
16037;SDS011;8123;50.906;6.172;2023-04-01T16:20:49;4.13;;;3.83;;
16037;SDS011;8123;50.906;6.172;2023-04-01T16:26:25;3.40;;;3.20;;
16037;SDS011;8123;50.906;6.172;2023-04-01T16:31:45;6.40;;;3.70;;
16037;SDS011;8123;50.906;6.172;2023-04-01T16:34:41;3.10;;;2.97;;
16037;SDS011;8123;50.906;6.172;2023-04-01T16:37:21;2.83;;;2.73;;
16037;SDS011;8123;50.906;6.172;2023-04-01T16:48:58;6.77;;;4.23;;
16037;SDS011;8123;50.906;6.172;2023-04-01T16:54:45;3.77;;;3.57;;
16037;SDS011;8123;50.906;6.172;2023-04-01T17:02:43;5.40;;;3.37;;
16037;SDS011;8123;50.906;6.172;2023-04-01T17:20:18;4.43;;;4.13;;
16037;SDS011;8123;50.906;6.172;2023-04-01T17:22:54;4.63;;;4.23;;
16037;SDS011;8123;50.906;6.172;2023-04-01T17:28:39;9.33;;;4.53;;
16037;SDS011;8123;50.906;6.172;2023-04-01T17:36:45;4.20;;;3.90;;
16037;SDS011;8123;50.906;6.172;2023-04-01T17:42:42;4.47;;;4.00;;
16037;SDS011;8123;50.906;6.172;2023-04-01T17:45:22;3.67;;;3.37;;
16037;SDS011;8123;50.906;6.172;2023-04-01T17:47:59;5.23;;;4.10;;
16037;SDS011;8123;50.906;6.172;2023-04-01T17:59:38;5.90;;;5.37;;
16037;SDS011;8123;50.906;6.172;2023-04-01T18:10:47;5.73;;;5.00;;
16037;SDS011;8123;50.906;6.172;2023-04-01T18:27:19;8.13;;;6.13;;
16037;SDS011;8123;50.906;6.172;2023-04-01T18:32:23;8.00;;;6.80;;
16037;SDS011;8123;50.906;6.172;2023-04-01T18:38:12;8.50;;;7.60;;
16037;SDS011;8123;50.906;6.172;2023-04-01T18:52:09;13.73;;;8.80;;
16037;SDS011;8123;50.906;6.172;2023-04-01T18:57:27;9.80;;;8.40;;
16037;SDS011;8123;50.906;6.172;2023-04-01T19:00:18;17.00;;;7.77;;
16037;SDS011;8123;50.906;6.172;2023-04-01T19:02:51;12.67;;;9.43;;
16037;SDS011;8123;50.906;6.172;2023-04-01T19:05:34;11.07;;;8.67;;
16037;SDS011;8123;50.906;6.172;2023-04-01T19:21:56;7.20;;;6.60;;
16037;SDS011;8123;50.906;6.172;2023-04-01T19:30:04;9.40;;;7.40;;
16037;SDS011;8123;50.906;6.172;2023-04-01T19:33:00;7.63;;;6.50;;
16037;SDS011;8123;50.906;6.172;2023-04-01T19:36:00;7.50;;;6.30;;
16037;SDS011;8123;50.906;6.172;2023-04-01T19:38:39;8.43;;;6.73;;
16037;SDS011;8123;50.906;6.172;2023-04-01T19:46:41;6.40;;;5.80;;
16037;SDS011;8123;50.906;6.172;2023-04-01T20:00:43;4.40;;;4.00;;
16037;SDS011;8123;50.906;6.172;2023-04-01T20:03:30;4.00;;;3.70;;
16037;SDS011;8123;50.906;6.172;2023-04-01T20:11:30;4.97;;;4.57;;
16037;SDS011;8123;50.906;6.172;2023-04-01T20:14:22;5.00;;;4.70;;
16037;SDS011;8123;50.906;6.172;2023-04-01T20:17:16;4.47;;;4.10;;
16037;SDS011;8123;50.906;6.172;2023-04-01T20:33:42;6.30;;;5.80;;
16037;SDS011;8123;50.906;6.172;2023-04-01T20:36:41;9.30;;;6.70;;
16037;SDS011;8123;50.906;6.172;2023-04-01T20:39:30;6.63;;;5.83;;
16037;SDS011;8123;50.906;6.172;2023-04-01T20:50:52;8.53;;;7.43;;
16037;SDS011;8123;50.906;6.172;2023-04-01T20:56:23;12.30;;;9.80;;
16037;SDS011;8123;50.906;6.172;2023-04-01T20:59:07;14.27;;;10.70;;
16037;SDS011;8123;50.906;6.172;2023-04-01T21:01:51;13.97;;;10.77;;
16037;SDS011;8123;50.906;6.172;2023-04-01T21:04:37;16.90;;;10.50;;
16037;SDS011;8123;50.906;6.172;2023-04-01T21:07:23;11.13;;;9.17;;
16037;SDS011;8123;50.906;6.172;2023-04-01T21:29:46;10.30;;;8.47;;
16037;SDS011;8123;50.906;6.172;2023-04-01T21:35:08;9.70;;;8.03;;
16037;SDS011;8123;50.906;6.172;2023-04-01T21:46:06;13.27;;;9.60;;
16037;SDS011;8123;50.906;6.172;2023-04-01T21:48:47;11.17;;;9.43;;
16037;SDS011;8123;50.906;6.172;2023-04-01T22:00:18;8.90;;;7.57;;
16037;SDS011;8123;50.906;6.172;2023-04-01T22:13:26;8.07;;;6.23;;
16037;SDS011;8123;50.906;6.172;2023-04-01T22:16:23;9.90;;;8.00;;
16037;SDS011;8123;50.906;6.172;2023-04-01T22:21:44;7.00;;;6.30;;
16037;SDS011;8123;50.906;6.172;2023-04-01T22:24:44;6.90;;;6.23;;
16037;SDS011;8123;50.906;6.172;2023-04-01T22:30:31;12.13;;;8.60;;
16037;SDS011;8123;50.906;6.172;2023-04-01T22:35:47;10.60;;;8.77;;
16037;SDS011;8123;50.906;6.172;2023-04-01T22:38:23;13.23;;;9.77;;
16037;SDS011;8123;50.906;6.172;2023-04-01T22:43:38;17.70;;;12.43;;
16037;SDS011;8123;50.906;6.172;2023-04-01T22:46:26;27.00;;;14.27;;
16037;SDS011;8123;50.906;6.172;2023-04-01T22:49:21;33.80;;;18.13;;
16037;SDS011;8123;50.906;6.172;2023-04-01T22:51:49;33.33;;;16.17;;
16037;SDS011;8123;50.906;6.172;2023-04-01T22:54:24;31.53;;;18.10;;
16037;SDS011;8123;50.906;6.172;2023-04-01T22:57:03;25.43;;;13.80;;
16037;SDS011;8123;50.906;6.172;2023-04-01T22:59:36;26.53;;;12.07;;
16037;SDS011;8123;50.906;6.172;2023-04-01T23:02:14;19.00;;;11.83;;
16037;SDS011;8123;50.906;6.172;2023-04-01T23:04:42;23.07;;;12.70;;
16037;SDS011;8123;50.906;6.172;2023-04-01T23:07:21;16.63;;;11.50;;
16037;SDS011;8123;50.906;6.172;2023-04-01T23:10:00;17.50;;;10.13;;
16037;SDS011;8123;50.906;6.172;2023-04-01T23:12:28;18.67;;;12.10;;
16037;SDS011;8123;50.906;6.172;2023-04-01T23:15:00;19.93;;;12.07;;
16037;SDS011;8123;50.906;6.172;2023-04-01T23:35:47;10.70;;;9.10;;
16037;SDS011;8123;50.906;6.172;2023-04-01T23:38:19;12.40;;;9.17;;
16037;SDS011;8123;50.906;6.172;2023-04-01T23:40:47;9.20;;;7.60;;
16037;SDS011;8123;50.906;6.172;2023-04-01T23:43:21;8.40;;;7.47;;
16037;SDS011;8123;50.906;6.172;2023-04-01T23:45:47;16.00;;;7.90;;
16037;SDS011;8123;50.906;6.172;2023-04-01T23:48:13;6.77;;;6.07;;
16037;SDS011;8123;50.906;6.172;2023-04-01T23:50:41;7.70;;;6.77;;
16037;SDS011;8123;50.906;6.172;2023-04-01T23:53:11;9.67;;;7.60;;
16037;SDS011;8123;50.906;6.172;2023-04-01T23:55:49;10.80;;;8.20;;
